Terminal Aerodrome Forecast
Issued by NWS Dodge City, KS

Home | Current Version | Previous Version | Text Only | Print | Product List | Glossary On
Versions: 1 2 3 4 5 6 7 8 9 10 11 12 13 14 15 16 17 18 19 20 21 22 23 24 25 26 27 28 29 30 31 32
755
FTUS43 KDDC 251120
TAFDDC
TAF
KDDC 251120Z 2512/2612 26009KT P6SM BKN250
     FM251500 30013G22KT P6SM BKN140
     FM252200 01014G23KT P6SM VCSH BKN050
     FM260000 02014KT P6SM -SHRA OVC050
     FM260600 36016G26KT P6SM OVC015=

USA.gov is the U.S. government's official web portal to all federal, state and local government web resources and services.